Time;durP1;ratioP1;P1;durP2;ratioP2;P2;SDS_P1;SDS_P2;PMS_P1;PMS_P2;Temp;Humidity;BMP_temperature;BMP_pressure;BME280_temperature;BME280_humidity;BME280_pressure;Samples;Min_cycle;Max_cycle;Signal;HPM_P1;HPM_P2
2023/05/02 00:01:40;;;;;;;18.30;13.20;;;;;;;-128.00;-1.00;-1.00;105755;1252;1005168;-73
2023/05/02 00:04:06;;;;;;;21.50;13.60;;;;;;;-128.00;-1.00;-1.00;105722;1251;1003705;-73
2023/05/02 00:06:34;;;;;;;19.00;14.20;;;;;;;-128.00;-1.00;-1.00;105759;1250;1004750;-73
2023/05/02 00:09:00;;;;;;;18.20;15.00;;;;;;;-128.00;-1.00;-1.00;105750;1254;1004102;-73
2023/05/02 00:11:27;;;;;;;19.90;15.70;;;;;;;-128.00;-1.00;-1.00;105747;1251;1004712;-73
2023/05/02 00:13:53;;;;;;;17.70;13.30;;;;;;;-128.00;-1.00;-1.00;105711;1251;1004222;-73
2023/05/02 00:16:20;;;;;;;16.00;14.30;;;;;;;-128.00;-1.00;-1.00;105633;1251;1004087;-73
2023/05/02 00:18:48;;;;;;;20.60;14.40;;;;;;;-128.00;-1.00;-1.00;105744;1251;1003333;-72
2023/05/02 00:21:14;;;;;;;18.70;14.00;;;;;;;-128.00;-1.00;-1.00;105737;1251;1004503;-72
2023/05/02 00:23:41;;;;;;;19.20;14.30;;;;;;;-128.00;-1.00;-1.00;105785;1251;1005002;-72
2023/05/02 00:26:08;;;;;;;21.60;14.60;;;;;;;-128.00;-1.00;-1.00;105764;1251;1004286;-73
2023/05/02 00:28:35;;;;;;;19.00;13.50;;;;;;;-128.00;-1.00;-1.00;105782;1251;1004243;-73
2023/05/02 00:31:03;;;;;;;18.70;14.20;;;;;;;-128.00;-1.00;-1.00;105767;1251;1003622;-72
2023/05/02 00:33:30;;;;;;;22.50;14.90;;;;;;;-128.00;-1.00;-1.00;105803;1251;1003338;-72
2023/05/02 00:35:56;;;;;;;18.80;14.60;;;;;;;-128.00;-1.00;-1.00;105741;1251;1003708;-72
2023/05/02 00:38:23;;;;;;;18.30;14.20;;;;;;;-128.00;-1.00;-1.00;105767;1251;1004106;-72
2023/05/02 00:40:51;;;;;;;17.90;14.30;;;;;;;-128.00;-1.00;-1.00;105747;1254;1004168;-72
2023/05/02 00:43:17;;;;;;;20.20;13.90;;;;;;;-128.00;-1.00;-1.00;105586;1253;1003611;-72
2023/05/02 00:45:47;;;;;;;21.90;15.70;;;;;;;-128.00;-1.00;-1.00;105791;1251;1005218;-72
2023/05/02 00:48:14;;;;;;;17.70;12.60;;;;;;;-128.00;-1.00;-1.00;105744;1251;1059607;-72
2023/05/02 00:50:41;;;;;;;18.00;13.70;;;;;;;-128.00;-1.00;-1.00;105757;1252;1003989;-72
2023/05/02 00:53:09;;;;;;;17.20;13.60;;;;;;;-128.00;-1.00;-1.00;105768;1251;1004711;-71
2023/05/02 00:55:36;;;;;;;18.60;15.20;;;;;;;-128.00;-1.00;-1.00;105786;1251;1003974;-72
2023/05/02 00:58:10;;;;;;;19.10;15.10;;;;;;;-128.00;-1.00;-1.00;105772;1251;1004518;-72
2023/05/02 01:00:42;;;;;;;18.30;15.90;;;;;;;-128.00;-1.00;-1.00;105786;1251;1060072;-74
2023/05/02 01:03:19;;;;;;;21.40;16.40;;;;;;;-128.00;-1.00;-1.00;105746;1251;1045741;-74
2023/05/02 01:06:02;;;;;;;22.30;16.20;;;;;;;-128.00;-1.00;-1.00;105796;1251;1046412;-71
2023/05/02 01:08:39;;;;;;;24.80;17.50;;;;;;;-128.00;-1.00;-1.00;105780;1250;1061193;-72
2023/05/02 01:11:17;;;;;;;27.00;19.60;;;;;;;-128.00;-1.00;-1.00;105760;1254;1057228;-73
2023/05/02 01:13:44;;;;;;;24.40;16.40;;;;;;;-128.00;-1.00;-1.00;105733;1251;1060024;-72
2023/05/02 01:16:13;;;;;;;23.80;16.50;;;;;;;-128.00;-1.00;-1.00;105745;1251;1004414;-72
2023/05/02 01:18:42;;;;;;;25.90;16.80;;;;;;;-128.00;-1.00;-1.00;105747;1251;1047217;-72
2023/05/02 01:21:11;;;;;;;24.00;16.60;;;;;;;-128.00;-1.00;-1.00;105780;1251;1060959;-73
2023/05/02 01:23:58;;;;;;;22.70;15.80;;;;;;;-128.00;-1.00;-1.00;105728;1254;1056199;-73
2023/05/02 01:26:49;;;;;;;23.70;17.70;;;;;;;-128.00;-1.00;-1.00;105731;1251;1058809;-73
2023/05/02 01:29:17;;;;;;;21.20;17.10;;;;;;;-128.00;-1.00;-1.00;105690;1251;1045101;-73
2023/05/02 01:31:48;;;;;;;20.40;16.90;;;;;;;-128.00;-1.00;-1.00;105758;1253;1005036;-75
2023/05/02 01:34:17;;;;;;;20.80;16.20;;;;;;;-128.00;-1.00;-1.00;105763;1251;1060908;-74
2023/05/02 01:36:47;;;;;;;18.60;16.30;;;;;;;-128.00;-1.00;-1.00;105825;1251;1055688;-73
2023/05/02 01:39:19;;;;;;;22.80;15.70;;;;;;;-128.00;-1.00;-1.00;105751;1251;1061068;-73
2023/05/02 01:41:53;;;;;;;22.00;17.40;;;;;;;-128.00;-1.00;-1.00;105741;1255;1045558;-73
2023/05/02 01:44:22;;;;;;;21.00;16.70;;;;;;;-128.00;-1.00;-1.00;105791;1251;1048221;-73
2023/05/02 01:46:50;;;;;;;21.00;16.40;;;;;;;-128.00;-1.00;-1.00;105700;1251;1060979;-72
2023/05/02 01:49:18;;;;;;;18.90;15.50;;;;;;;-128.00;-1.00;-1.00;105733;1251;1056642;-73
2023/05/02 01:51:48;;;;;;;20.90;16.00;;;;;;;-128.00;-1.00;-1.00;105790;1251;1004608;-73
2023/05/02 01:54:16;;;;;;;22.90;16.50;;;;;;;-128.00;-1.00;-1.00;105788;1251;1046714;-73
2023/05/02 01:56:45;;;;;;;21.80;17.40;;;;;;;-128.00;-1.00;-1.00;105727;1251;1047571;-73
2023/05/02 01:59:15;;;;;;;23.30;16.20;;;;;;;-128.00;-1.00;-1.00;105808;1250;1060588;-73
2023/05/02 02:01:43;;;;;;;24.20;17.90;;;;;;;-128.00;-1.00;-1.00;105721;1251;1056937;-73
2023/05/02 02:04:12;;;;;;;22.50;18.60;;;;;;;-128.00;-1.00;-1.00;105535;1251;1003947;-72
2023/05/02 02:06:43;;;;;;;21.40;19.10;;;;;;;-128.00;-1.00;-1.00;105630;1251;1044620;-71
2023/05/02 02:09:09;;;;;;;22.90;17.80;;;;;;;-128.00;-1.00;-1.00;105765;1251;1045891;-71
2023/05/02 02:11:46;;;;;;;24.00;17.70;;;;;;;-128.00;-1.00;-1.00;105816;1251;1003442;-72
2023/05/02 02:14:32;;;;;;;21.70;17.60;;;;;;;-128.00;-1.00;-1.00;105783;1251;1056096;-73
2023/05/02 02:17:01;;;;;;;21.00;17.40;;;;;;;-128.00;-1.00;-1.00;105730;1251;1060266;-72
2023/05/02 02:19:29;;;;;;;22.60;16.90;;;;;;;-128.00;-1.00;-1.00;105749;1251;1045071;-72
2023/05/02 02:21:57;;;;;;;20.70;15.70;;;;;;;-128.00;-1.00;-1.00;105780;1251;1047107;-72
2023/05/02 02:24:25;;;;;;;22.60;17.40;;;;;;;-128.00;-1.00;-1.00;105782;1251;1004408;-72
2023/05/02 02:26:52;;;;;;;19.20;15.30;;;;;;;-128.00;-1.00;-1.00;105798;1251;1004198;-73
2023/05/02 02:29:18;;;;;;;23.70;17.90;;;;;;;-128.00;-1.00;-1.00;105766;1251;1003746;-72
2023/05/02 02:31:45;;;;;;;19.00;16.30;;;;;;;-128.00;-1.00;-1.00;105709;1251;1003886;-72
2023/05/02 02:34:11;;;;;;;20.90;16.00;;;;;;;-128.00;-1.00;-1.00;105778;1251;1006985;-72
2023/05/02 02:36:45;;;;;;;20.20;17.20;;;;;;;-128.00;-1.00;-1.00;105604;1251;1004739;-72
2023/05/02 02:39:49;;;;;;;19.60;16.30;;;;;;;-128.00;-1.00;-1.00;105710;1251;1055560;-72
2023/05/02 02:42:54;;;;;;;23.60;16.80;;;;;;;-128.00;-1.00;-1.00;105759;1251;1058944;-72
2023/05/02 02:45:31;;;;;;;20.70;16.10;;;;;;;-128.00;-1.00;-1.00;105172;1258;1045738;-72
2023/05/02 02:48:39;;;;;;;22.20;15.90;;;;;;;-128.00;-1.00;-1.00;105175;1259;1047733;-73
2023/05/02 02:51:12;;;;;;;19.70;14.40;;;;;;;-128.00;-1.00;-1.00;104877;1267;1060935;-71
2023/05/02 02:54:04;;;;;;;20.30;15.30;;;;;;;-128.00;-1.00;-1.00;104905;1266;1055854;-73
2023/05/02 02:56:57;;;;;;;19.70;15.00;;;;;;;-128.00;-1.00;-1.00;104880;1266;1058467;-73
2023/05/02 02:59:30;;;;;;;24.30;20.80;;;;;;;-128.00;-1.00;-1.00;104887;1268;1046396;-72
2023/05/02 03:02:08;;;;;;;23.70;21.10;;;;;;;-128.00;-1.00;-1.00;104894;1263;1046734;-72
2023/05/02 03:04:39;;;;;;;21.10;18.30;;;;;;;-128.00;-1.00;-1.00;104907;1263;1063336;-72
2023/05/02 03:07:06;;;;;;;20.20;18.00;;;;;;;-128.00;-1.00;-1.00;104879;1266;1055426;-72
2023/05/02 03:09:43;;;;;;;23.50;19.60;;;;;;;-128.00;-1.00;-1.00;104902;1263;1004785;-72
2023/05/02 03:12:11;;;;;;;20.10;18.00;;;;;;;-128.00;-1.00;-1.00;104905;1268;1045891;-73
2023/05/02 03:14:38;;;;;;;20.20;16.10;;;;;;;-128.00;-1.00;-1.00;104863;1264;1003463;-73
2023/05/02 03:17:07;;;;;;;20.50;16.00;;;;;;;-128.00;-1.00;-1.00;104722;1263;1003366;-73
2023/05/02 03:19:33;;;;;;;21.80;16.20;;;;;;;-128.00;-1.00;-1.00;104897;1263;1055400;-72
2023/05/02 03:22:00;;;;;;;18.50;15.30;;;;;;;-128.00;-1.00;-1.00;105202;1257;1003706;-73
2023/05/02 03:24:26;;;;;;;21.10;16.00;;;;;;;-128.00;-1.00;-1.00;105241;1257;1004815;-73
2023/05/02 03:26:55;;;;;;;20.40;16.50;;;;;;;-128.00;-1.00;-1.00;105261;1257;1003450;-72
2023/05/02 03:29:22;;;;;;;19.50;16.30;;;;;;;-128.00;-1.00;-1.00;105719;1251;1004770;-72
2023/05/02 03:31:48;;;;;;;19.10;16.00;;;;;;;-128.00;-1.00;-1.00;105763;1251;1004057;-73
2023/05/02 03:34:14;;;;;;;22.30;16.00;;;;;;;-128.00;-1.00;-1.00;105709;1251;1003534;-73
2023/05/02 03:36:41;;;;;;;20.30;15.60;;;;;;;-128.00;-1.00;-1.00;105783;1251;1004195;-72
2023/05/02 03:39:08;;;;;;;19.10;15.30;;;;;;;-128.00;-1.00;-1.00;105735;1251;1004300;-72
2023/05/02 03:41:34;;;;;;;21.30;17.00;;;;;;;-128.00;-1.00;-1.00;105755;1251;1004726;-73
2023/05/02 03:44:01;;;;;;;26.20;18.70;;;;;;;-128.00;-1.00;-1.00;105668;1251;1003783;-71
2023/05/02 03:46:29;;;;;;;23.40;18.80;;;;;;;-128.00;-1.00;-1.00;105752;1251;1004459;-72
2023/05/02 03:48:59;;;;;;;25.30;18.70;;;;;;;-128.00;-1.00;-1.00;105761;1251;1004343;-72
2023/05/02 03:51:25;;;;;;;28.90;19.40;;;;;;;-128.00;-1.00;-1.00;105680;1251;1046331;-72
2023/05/02 03:53:52;;;;;;;25.50;19.00;;;;;;;-128.00;-1.00;-1.00;105776;1251;1003337;-72
2023/05/02 03:56:19;;;;;;;21.40;16.60;;;;;;;-128.00;-1.00;-1.00;105742;1251;1005094;-72
2023/05/02 03:58:47;;;;;;;23.80;17.40;;;;;;;-128.00;-1.00;-1.00;105710;1251;1004823;-72
2023/05/02 04:01:15;;;;;;;19.10;16.00;;;;;;;-128.00;-1.00;-1.00;105722;1251;1003913;-72
2023/05/02 04:03:42;;;;;;;21.10;16.60;;;;;;;-128.00;-1.00;-1.00;105748;1251;1004132;-73
2023/05/02 04:06:09;;;;;;;20.40;17.40;;;;;;;-128.00;-1.00;-1.00;105769;1251;1004122;-73
2023/05/02 04:08:35;;;;;;;18.40;16.10;;;;;;;-128.00;-1.00;-1.00;105716;1251;1004621;-71
2023/05/02 04:11:02;;;;;;;19.20;16.00;;;;;;;-128.00;-1.00;-1.00;105711;1251;1004633;-72
2023/05/02 04:13:29;;;;;;;20.50;16.80;;;;;;;-128.00;-1.00;-1.00;105757;1251;1004434;-72
2023/05/02 04:15:55;;;;;;;17.80;15.40;;;;;;;-128.00;-1.00;-1.00;105727;1251;1004236;-72
2023/05/02 04:18:22;;;;;;;16.70;14.90;;;;;;;-128.00;-1.00;-1.00;105747;1251;1004073;-72
2023/05/02 04:20:49;;;;;;;16.60;14.30;;;;;;;-128.00;-1.00;-1.00;105733;1251;1004933;-73
2023/05/02 04:23:16;;;;;;;17.50;14.50;;;;;;;-128.00;-1.00;-1.00;105554;1251;1004421;-73
2023/05/02 04:25:55;;;;;;;17.20;15.50;;;;;;;-128.00;-1.00;-1.00;105578;1251;1004869;-73
2023/05/02 04:28:22;;;;;;;16.90;14.40;;;;;;;-128.00;-1.00;-1.00;105639;1251;1046399;-73
2023/05/02 04:30:49;;;;;;;15.80;14.10;;;;;;;-128.00;-1.00;-1.00;105756;1251;1004267;-73
2023/05/02 04:33:17;;;;;;;16.40;14.70;;;;;;;-128.00;-1.00;-1.00;105741;1251;1004349;-73
2023/05/02 04:35:44;;;;;;;18.30;15.20;;;;;;;-128.00;-1.00;-1.00;105774;1251;1003857;-72
2023/05/02 04:38:10;;;;;;;17.70;14.70;;;;;;;-128.00;-1.00;-1.00;105716;1251;1004645;-73
2023/05/02 04:40:37;;;;;;;16.30;14.60;;;;;;;-128.00;-1.00;-1.00;105746;1251;1004180;-72
2023/05/02 04:43:04;;;;;;;16.80;15.00;;;;;;;-128.00;-1.00;-1.00;105735;1251;1003806;-72
2023/05/02 04:45:31;;;;;;;15.50;14.00;;;;;;;-128.00;-1.00;-1.00;105750;1251;1004058;-72
2023/05/02 04:47:58;;;;;;;15.20;13.60;;;;;;;-128.00;-1.00;-1.00;105694;1251;1004473;-72
2023/05/02 04:50:26;;;;;;;16.00;13.50;;;;;;;-128.00;-1.00;-1.00;105708;1251;1004595;-72
2023/05/02 04:52:53;;;;;;;14.90;13.40;;;;;;;-128.00;-1.00;-1.00;105765;1251;1046966;-72
2023/05/02 04:55:20;;;;;;;14.40;12.90;;;;;;;-128.00;-1.00;-1.00;105741;1251;1004088;-72
2023/05/02 04:57:46;;;;;;;13.50;11.90;;;;;;;-128.00;-1.00;-1.00;105778;1251;1004036;-72
2023/05/02 05:00:13;;;;;;;12.70;11.40;;;;;;;-128.00;-1.00;-1.00;105713;1251;1004418;-72
2023/05/02 05:02:40;;;;;;;13.60;11.50;;;;;;;-128.00;-1.00;-1.00;105727;1254;1004039;-72
2023/05/02 05:05:06;;;;;;;12.90;11.60;;;;;;;-128.00;-1.00;-1.00;105767;1251;1004222;-72
2023/05/02 05:07:33;;;;;;;14.10;11.60;;;;;;;-128.00;-1.00;-1.00;105647;1250;1004491;-72
2023/05/02 05:10:00;;;;;;;12.80;11.40;;;;;;;-128.00;-1.00;-1.00;105777;1250;1004559;-73
2023/05/02 05:12:26;;;;;;;14.10;12.20;;;;;;;-128.00;-1.00;-1.00;105724;1251;1005093;-73
2023/05/02 05:14:53;;;;;;;14.10;12.00;;;;;;;-128.00;-1.00;-1.00;105706;1251;1003459;-73
2023/05/02 05:17:19;;;;;;;15.20;11.90;;;;;;;-128.00;-1.00;-1.00;105756;1251;1004176;-73
2023/05/02 05:19:46;;;;;;;13.20;11.90;;;;;;;-128.00;-1.00;-1.00;105610;1251;1003643;-73
2023/05/02 05:22:12;;;;;;;12.50;11.20;;;;;;;-128.00;-1.00;-1.00;105766;1251;1003827;-73
2023/05/02 05:24:39;;;;;;;12.00;10.70;;;;;;;-128.00;-1.00;-1.00;105635;1251;1004624;-73
2023/05/02 05:27:05;;;;;;;11.50;10.10;;;;;;;-128.00;-1.00;-1.00;105772;1251;1003654;-73
2023/05/02 05:29:32;;;;;;;12.10;10.30;;;;;;;-128.00;-1.00;-1.00;105728;1251;1004937;-73
2023/05/02 05:31:58;;;;;;;12.20;10.20;;;;;;;-128.00;-1.00;-1.00;105704;1251;1004192;-73
2023/05/02 05:34:25;;;;;;;10.60;9.50;;;;;;;-128.00;-1.00;-1.00;105546;1251;1004455;-73
2023/05/02 05:36:52;;;;;;;11.70;8.40;;;;;;;-128.00;-1.00;-1.00;105745;1251;1004118;-73
2023/05/02 05:39:19;;;;;;;10.40;8.80;;;;;;;-128.00;-1.00;-1.00;105749;1251;1003420;-73
2023/05/02 05:41:45;;;;;;;9.30;8.30;;;;;;;-128.00;-1.00;-1.00;105801;1251;1004400;-73
2023/05/02 05:44:12;;;;;;;11.20;8.40;;;;;;;-128.00;-1.00;-1.00;105708;1251;1004152;-73
2023/05/02 05:46:39;;;;;;;10.20;8.00;;;;;;;-128.00;-1.00;-1.00;105774;1251;1004173;-73
2023/05/02 05:49:06;;;;;;;9.30;8.40;;;;;;;-128.00;-1.00;-1.00;105752;1251;1004113;-73
2023/05/02 05:51:32;;;;;;;11.40;7.70;;;;;;;-128.00;-1.00;-1.00;105752;1251;1004523;-73
2023/05/02 05:53:59;;;;;;;9.40;7.30;;;;;;;-128.00;-1.00;-1.00;105726;1251;1005098;-73
2023/05/02 05:56:25;;;;;;;8.10;7.20;;;;;;;-128.00;-1.00;-1.00;105768;1251;1004176;-74
2023/05/02 05:58:53;;;;;;;7.70;6.90;;;;;;;-128.00;-1.00;-1.00;105764;1251;1004053;-73
2023/05/02 06:01:20;;;;;;;9.00;7.20;;;;;;;-128.00;-1.00;-1.00;105620;1251;1003421;-74
2023/05/02 06:03:47;;;;;;;7.20;6.50;;;;;;;-128.00;-1.00;-1.00;105724;1251;1004571;-73
2023/05/02 06:06:13;;;;;;;10.10;6.90;;;;;;;-128.00;-1.00;-1.00;105724;1251;1004465;-73
2023/05/02 06:08:40;;;;;;;8.00;7.20;;;;;;;-128.00;-1.00;-1.00;105454;1251;1003236;-74
2023/05/02 06:11:10;;;;;;;8.40;7.50;;;;;;;-128.00;-1.00;-1.00;105698;1251;1004080;-74
2023/05/02 06:13:36;;;;;;;9.90;6.60;;;;;;;-128.00;-1.00;-1.00;105554;1251;1059098;-73
2023/05/02 06:16:04;;;;;;;7.80;7.00;;;;;;;-128.00;-1.00;-1.00;105700;1251;1003507;-72
2023/05/02 06:18:30;;;;;;;8.20;6.80;;;;;;;-128.00;-1.00;-1.00;105617;1251;1004077;-72
2023/05/02 06:20:57;;;;;;;7.40;6.50;;;;;;;-128.00;-1.00;-1.00;105767;1251;1003298;-72
2023/05/02 06:23:23;;;;;;;7.70;6.30;;;;;;;-128.00;-1.00;-1.00;105745;1251;1004815;-72
2023/05/02 06:25:50;;;;;;;8.30;7.00;;;;;;;-128.00;-1.00;-1.00;105766;1251;1004009;-72
2023/05/02 06:28:16;;;;;;;9.30;6.70;;;;;;;-128.00;-1.00;-1.00;105721;1251;1004653;-72
2023/05/02 06:30:43;;;;;;;7.20;6.20;;;;;;;-128.00;-1.00;-1.00;105764;1251;1003588;-73
2023/05/02 06:33:11;;;;;;;7.00;6.40;;;;;;;-128.00;-1.00;-1.00;105719;1251;1004457;-73
2023/05/02 06:35:37;;;;;;;6.70;5.70;;;;;;;-128.00;-1.00;-1.00;105755;1251;1004091;-73
2023/05/02 06:38:04;;;;;;;5.70;5.20;;;;;;;-128.00;-1.00;-1.00;105737;1251;1003560;-72
2023/05/02 06:40:30;;;;;;;6.30;5.60;;;;;;;-128.00;-1.00;-1.00;105775;1251;1004410;-72
2023/05/02 06:42:57;;;;;;;8.00;5.40;;;;;;;-128.00;-1.00;-1.00;105716;1251;1004647;-72
2023/05/02 06:45:23;;;;;;;5.50;5.00;;;;;;;-128.00;-1.00;-1.00;105715;1250;1004828;-72
2023/05/02 06:47:50;;;;;;;5.20;4.60;;;;;;;-128.00;-1.00;-1.00;105785;1251;1005011;-72
2023/05/02 06:50:17;;;;;;;3.60;3.30;;;;;;;-128.00;-1.00;-1.00;105718;1251;1004690;-74
2023/05/02 06:52:43;;;;;;;6.60;4.70;;;;;;;-128.00;-1.00;-1.00;105744;1251;1004270;-72
2023/05/02 06:55:10;;;;;;;5.50;4.90;;;;;;;-128.00;-1.00;-1.00;105750;1251;1004446;-73
2023/05/02 06:57:36;;;;;;;4.70;4.20;;;;;;;-128.00;-1.00;-1.00;105757;1251;1003759;-73
2023/05/02 07:00:03;;;;;;;5.20;3.30;;;;;;;-128.00;-1.00;-1.00;105756;1251;1003506;-73
2023/05/02 07:02:30;;;;;;;6.50;4.10;;;;;;;-128.00;-1.00;-1.00;105581;1251;1004509;-73
2023/05/02 07:04:57;;;;;;;4.70;4.30;;;;;;;-128.00;-1.00;-1.00;105752;1251;1004145;-72
2023/05/02 07:07:23;;;;;;;8.30;5.10;;;;;;;-128.00;-1.00;-1.00;105728;1251;1004131;-72
2023/05/02 07:09:49;;;;;;;5.70;4.70;;;;;;;-128.00;-1.00;-1.00;105528;1251;1004732;-72
2023/05/02 07:12:16;;;;;;;5.40;4.50;;;;;;;-128.00;-1.00;-1.00;105719;1251;1004410;-73
2023/05/02 07:14:45;;;;;;;7.00;4.80;;;;;;;-128.00;-1.00;-1.00;105679;1251;1004969;-72
2023/05/02 07:17:12;;;;;;;7.20;4.40;;;;;;;-128.00;-1.00;-1.00;105715;1251;1044271;-72
2023/05/02 07:19:38;;;;;;;4.70;4.20;;;;;;;-128.00;-1.00;-1.00;105776;1251;1003482;-73
2023/05/02 07:22:06;;;;;;;4.80;4.30;;;;;;;-128.00;-1.00;-1.00;105764;1250;1004460;-72
2023/05/02 07:24:32;;;;;;;4.80;4.20;;;;;;;-128.00;-1.00;-1.00;105779;1251;1005043;-73
2023/05/02 07:26:58;;;;;;;3.50;3.20;;;;;;;-128.00;-1.00;-1.00;105741;1251;1004032;-72
2023/05/02 07:29:25;;;;;;;3.20;2.40;;;;;;;-128.00;-1.00;-1.00;105756;1251;1005064;-72
2023/05/02 07:31:52;;;;;;;4.50;2.20;;;;;;;-128.00;-1.00;-1.00;105774;1251;1004340;-72
2023/05/02 07:34:18;;;;;;;2.50;1.80;;;;;;;-128.00;-1.00;-1.00;105714;1251;1004662;-73
2023/05/02 07:36:45;;;;;;;2.90;2.00;;;;;;;-128.00;-1.00;-1.00;105751;1251;1004870;-73
2023/05/02 07:39:11;;;;;;;2.60;2.10;;;;;;;-128.00;-1.00;-1.00;105751;1251;1004912;-73
2023/05/02 07:41:38;;;;;;;2.50;2.30;;;;;;;-128.00;-1.00;-1.00;105754;1251;1004724;-73
2023/05/02 07:44:04;;;;;;;2.30;2.00;;;;;;;-128.00;-1.00;-1.00;105754;1251;1003469;-72
2023/05/02 07:46:31;;;;;;;2.80;2.30;;;;;;;-128.00;-1.00;-1.00;105592;1253;1004862;-72
2023/05/02 07:48:57;;;;;;;2.80;2.20;;;;;;;-128.00;-1.00;-1.00;105644;1251;1003629;-72
2023/05/02 07:51:25;;;;;;;2.50;2.30;;;;;;;-128.00;-1.00;-1.00;105702;1251;1004009;-72
2023/05/02 07:53:54;;;;;;;2.40;2.20;;;;;;;-128.00;-1.00;-1.00;105737;1251;1004411;-72
2023/05/02 07:56:20;;;;;;;2.20;1.80;;;;;;;-128.00;-1.00;-1.00;105743;1251;1048117;-72
2023/05/02 07:58:47;;;;;;;3.40;2.10;;;;;;;-128.00;-1.00;-1.00;105779;1250;1004674;-72
2023/05/02 08:01:13;;;;;;;2.90;2.20;;;;;;;-128.00;-1.00;-1.00;105764;1251;1004984;-73
2023/05/02 08:03:40;;;;;;;2.90;2.50;;;;;;;-128.00;-1.00;-1.00;105740;1251;1004555;-72
2023/05/02 08:06:08;;;;;;;2.20;2.00;;;;;;;-128.00;-1.00;-1.00;105760;1251;1004214;-73
2023/05/02 08:08:36;;;;;;;3.80;2.30;;;;;;;-128.00;-1.00;-1.00;105807;1251;1004315;-73
2023/05/02 08:11:03;;;;;;;3.00;2.30;;;;;;;-128.00;-1.00;-1.00;105780;1251;1004022;-73
2023/05/02 08:13:29;;;;;;;3.50;2.30;;;;;;;-128.00;-1.00;-1.00;105788;1251;1003679;-73
2023/05/02 08:15:57;;;;;;;2.60;2.30;;;;;;;-128.00;-1.00;-1.00;105773;1251;1004419;-73
2023/05/02 08:18:24;;;;;;;2.90;2.10;;;;;;;-128.00;-1.00;-1.00;105763;1251;1005068;-73
2023/05/02 08:20:51;;;;;;;2.60;2.40;;;;;;;-128.00;-1.00;-1.00;105786;1251;1004634;-73
2023/05/02 08:23:18;;;;;;;3.60;2.30;;;;;;;-128.00;-1.00;-1.00;105742;1251;1003127;-73
2023/05/02 08:25:44;;;;;;;2.80;2.50;;;;;;;-128.00;-1.00;-1.00;105793;1251;1004890;-73
2023/05/02 08:28:11;;;;;;;2.10;2.00;;;;;;;-128.00;-1.00;-1.00;105698;1251;1004173;-73
2023/05/02 08:30:37;;;;;;;3.10;2.40;;;;;;;-128.00;-1.00;-1.00;105718;1251;1004918;-72
2023/05/02 08:33:04;;;;;;;2.10;1.90;;;;;;;-128.00;-1.00;-1.00;105771;1251;1004113;-72
2023/05/02 08:35:31;;;;;;;4.60;2.40;;;;;;;-128.00;-1.00;-1.00;105700;1251;1003906;-74
2023/05/02 08:37:57;;;;;;;2.50;2.20;;;;;;;-128.00;-1.00;-1.00;105765;1251;1003837;-72
2023/05/02 08:40:24;;;;;;;3.70;2.70;;;;;;;-128.00;-1.00;-1.00;105784;1251;1005254;-73
2023/05/02 08:42:53;;;;;;;3.30;2.10;;;;;;;-128.00;-1.00;-1.00;105579;1251;1004076;-73
2023/05/02 08:45:21;;;;;;;2.10;2.00;;;;;;;-128.00;-1.00;-1.00;105794;1251;1047834;-72
2023/05/02 08:47:49;;;;;;;2.30;2.10;;;;;;;-128.00;-1.00;-1.00;105787;1251;1004611;-72
2023/05/02 08:50:17;;;;;;;2.80;2.60;;;;;;;-128.00;-1.00;-1.00;105777;1251;1004436;-72
2023/05/02 08:52:45;;;;;;;4.40;3.90;;;;;;;-128.00;-1.00;-1.00;105735;1251;1004710;-72
2023/05/02 08:55:12;;;;;;;4.90;3.90;;;;;;;-128.00;-1.00;-1.00;105725;1251;1003998;-72
2023/05/02 08:57:39;;;;;;;3.00;2.80;;;;;;;-128.00;-1.00;-1.00;105801;1250;1004001;-72
2023/05/02 09:00:06;;;;;;;4.70;2.50;;;;;;;-128.00;-1.00;-1.00;105749;1251;1004832;-72
2023/05/02 09:02:50;;;;;;;5.00;3.20;;;;;;;-128.00;-1.00;-1.00;105788;1250;1004358;-72
2023/05/02 09:05:22;;;;;;;2.10;1.80;;;;;;;-128.00;-1.00;-1.00;105682;1251;1059302;-72
2023/05/02 09:07:50;;;;;;;2.10;1.90;;;;;;;-128.00;-1.00;-1.00;105593;1251;1044969;-72
2023/05/02 09:10:17;;;;;;;2.10;1.90;;;;;;;-128.00;-1.00;-1.00;105826;1251;1004079;-71
2023/05/02 09:12:43;;;;;;;4.30;3.50;;;;;;;-128.00;-1.00;-1.00;105729;1251;1004985;-72
2023/05/02 09:15:15;;;;;;;2.70;2.00;;;;;;;-128.00;-1.00;-1.00;105833;1251;1004362;-71
2023/05/02 09:17:43;;;;;;;3.20;2.50;;;;;;;-128.00;-1.00;-1.00;105705;1251;1060314;-71
2023/05/02 09:20:12;;;;;;;2.70;1.80;;;;;;;-128.00;-1.00;-1.00;105569;1251;1004338;-71
2023/05/02 09:22:48;;;;;;;4.00;2.20;;;;;;;-128.00;-1.00;-1.00;105764;1251;1047370;-72
2023/05/02 09:25:15;;;;;;;2.10;1.90;;;;;;;-128.00;-1.00;-1.00;105581;1251;1061222;-72
2023/05/02 09:28:08;;;;;;;2.70;1.80;;;;;;;-128.00;-1.00;-1.00;105418;1251;1004371;-72
2023/05/02 09:30:35;;;;;;;2.60;2.00;;;;;;;-128.00;-1.00;-1.00;105235;1257;1059397;-72
2023/05/02 09:33:01;;;;;;;3.60;1.80;;;;;;;-128.00;-1.00;-1.00;105259;1257;1005781;-72
2023/05/02 09:35:28;;;;;;;2.60;1.80;;;;;;;-128.00;-1.00;-1.00;105245;1257;1004683;-72
2023/05/02 09:37:56;;;;;;;2.60;2.20;;;;;;;-128.00;-1.00;-1.00;105251;1257;1004485;-72
2023/05/02 09:40:23;;;;;;;4.90;3.70;;;;;;;-128.00;-1.00;-1.00;105222;1257;1003986;-72
2023/05/02 09:42:51;;;;;;;6.20;2.40;;;;;;;-128.00;-1.00;-1.00;105248;1257;1004375;-71
2023/05/02 09:45:23;;;;;;;2.60;2.00;;;;;;;-128.00;-1.00;-1.00;105136;1257;1003715;-71
2023/05/02 09:47:50;;;;;;;2.40;2.20;;;;;;;-128.00;-1.00;-1.00;105211;1257;1048632;-72
2023/05/02 09:50:37;;;;;;;2.90;2.20;;;;;;;-128.00;-1.00;-1.00;105157;1257;1003721;-72
2023/05/02 09:53:05;;;;;;;3.40;2.30;;;;;;;-128.00;-1.00;-1.00;105145;1257;1055170;-72
2023/05/02 09:55:32;;;;;;;2.90;2.30;;;;;;;-128.00;-1.00;-1.00;105074;1257;1059335;-71
2023/05/02 09:58:00;;;;;;;3.20;2.40;;;;;;;-128.00;-1.00;-1.00;105267;1257;1004169;-71
2023/05/02 10:00:39;;;;;;;2.60;2.40;;;;;;;-128.00;-1.00;-1.00;105295;1257;1003734;-72
2023/05/02 10:03:07;;;;;;;4.10;2.40;;;;;;;-128.00;-1.00;-1.00;105250;1257;1061756;-71
2023/05/02 10:05:37;;;;;;;2.60;1.90;;;;;;;-128.00;-1.00;-1.00;105285;1257;1003485;-72
2023/05/02 10:08:09;;;;;;;4.00;2.10;;;;;;;-128.00;-1.00;-1.00;105616;1251;1060201;-71
2023/05/02 10:10:38;;;;;;;2.50;2.30;;;;;;;-128.00;-1.00;-1.00;105748;1251;1044782;-71
2023/05/02 10:13:05;;;;;;;2.40;2.20;;;;;;;-128.00;-1.00;-1.00;105726;1251;1048081;-72
2023/05/02 10:15:33;;;;;;;2.70;2.00;;;;;;;-128.00;-1.00;-1.00;105801;1251;1004297;-73
2023/05/02 10:18:07;;;;;;;2.50;2.30;;;;;;;-128.00;-1.00;-1.00;105774;1250;1004502;-72
2023/05/02 10:20:36;;;;;;;2.30;2.10;;;;;;;-128.00;-1.00;-1.00;105737;1251;1059248;-72
2023/05/02 10:23:04;;;;;;;4.10;2.10;;;;;;;-128.00;-1.00;-1.00;105515;1254;1044508;-72
2023/05/02 10:25:32;;;;;;;4.00;2.20;;;;;;;-128.00;-1.00;-1.00;105543;1254;1004544;-72
2023/05/02 10:27:59;;;;;;;2.10;1.90;;;;;;;-128.00;-1.00;-1.00;105294;1254;1004179;-72
2023/05/02 10:30:26;;;;;;;2.20;1.90;;;;;;;-128.00;-1.00;-1.00;105555;1254;1003602;-72
2023/05/02 10:32:55;;;;;;;3.20;2.50;;;;;;;-128.00;-1.00;-1.00;105512;1255;1004958;-72
2023/05/02 10:35:23;;;;;;;2.60;2.40;;;;;;;-128.00;-1.00;-1.00;105522;1255;1045214;-72
2023/05/02 10:37:50;;;;;;;2.50;2.10;;;;;;;-128.00;-1.00;-1.00;105385;1254;1003616;-72
2023/05/02 10:40:17;;;;;;;3.40;2.40;;;;;;;-128.00;-1.00;-1.00;105499;1254;1003590;-72
2023/05/02 10:42:46;;;;;;;2.50;2.30;;;;;;;-128.00;-1.00;-1.00;105377;1256;1004885;-72
2023/05/02 10:45:34;;;;;;;2.90;2.10;;;;;;;-128.00;-1.00;-1.00;105521;1254;1059217;-71
2023/05/02 10:48:17;;;;;;;5.90;2.60;;;;;;;-128.00;-1.00;-1.00;105393;1254;1045795;-71
2023/05/02 10:50:55;;;;;;;2.50;2.30;;;;;;;-128.00;-1.00;-1.00;105341;1256;1046667;-73
2023/05/02 10:53:36;;;;;;;3.40;2.50;;;;;;;-128.00;-1.00;-1.00;105422;1251;1061675;-73
2023/05/02 10:56:15;;;;;;;3.30;2.70;;;;;;;-128.00;-1.00;-1.00;105749;1254;1055820;-73
2023/05/02 10:58:45;;;;;;;3.30;2.60;;;;;;;-128.00;-1.00;-1.00;105722;1251;1060052;-72
2023/05/02 11:01:27;;;;;;;3.20;2.90;;;;;;;-128.00;-1.00;-1.00;105793;1251;1044698;-72
2023/05/02 11:04:03;;;;;;;3.60;2.50;;;;;;;-128.00;-1.00;-1.00;105774;1251;1046719;-72
2023/05/02 11:06:35;;;;;;;4.60;3.00;;;;;;;-128.00;-1.00;-1.00;105788;1251;1062207;-72
2023/05/02 11:09:20;;;;;;;3.00;2.40;;;;;;;-128.00;-1.00;-1.00;105765;1251;1056273;-73
2023/05/02 11:11:53;;;;;;;3.20;2.50;;;;;;;-128.00;-1.00;-1.00;105774;1251;1058516;-71
2023/05/02 11:14:28;;;;;;;4.10;2.40;;;;;;;-128.00;-1.00;-1.00;105747;1250;1044571;-72
2023/05/02 11:17:00;;;;;;;3.20;2.50;;;;;;;-128.00;-1.00;-1.00;105784;1251;1047781;-71
2023/05/02 11:19:28;;;;;;;3.20;2.40;;;;;;;-128.00;-1.00;-1.00;105802;1251;1061060;-73